Syros Wind — SVA7559 — position and weather

sailwx.info

Track history (hours):
 
Tides and Currents Weather Stations Pressure Air Temp Water Temp Dewpoint Dewpoint Depression Visibility Wind Speed Wind Dir Waves Ship Positions

Syros Wind

Last reported at 2017-Sep-12 22:03 UTC. Time now 2017-Sep-21 05:28 UTC.
Position N 38°07' E 024°08'.
Warning: this ship's position is 8 days out of date.

Length 87 m; draft 4.8 m.

Type: Cargo ship. MMSI: 241475000.

Date/timePositionNaut miles runAvg speedWind from/ knotsBaromVisibWave heightAir tempDewpointWater temp
2017-Sep-12 22:03N 38°07' E 024°08'3 9.1
2017-Sep-12 21:45N 38°05' E 024°08'3 9.3
2017-Sep-12 21:24N 38°01' E 024°09'  
2017-Sep-10 03:26N 38°08' E 024°09'3 0.1
2017-Sep-09 05:01N 38°09' E 024°05'011.2
2017-Sep-09 05:00N 38°09' E 024°05'510.6
2017-Sep-09 04:30N 38°03' E 024°06'29 8.0
2017-Sep-09 00:55N 37°39' E 023°47'4 9.5
2017-Sep-09 00:30N 37°40' E 023°42'510.3
2017-Sep-09 00:01N 37°45' E 023°39'510.3
2017-Sep-08 23:30N 37°49' E 023°36'510.5
2017-Sep-08 23:00N 37°50' E 023°30'510.4
2017-Sep-08 22:31N 37°51' E 023°23'510.3
2017-Sep-08 22:00N 37°52' E 023°17'610.4
2017-Sep-08 21:25N 37°53' E 023°09'410.0
2017-Sep-08 21:00N 37°54' E 023°04'14 4.4
2017-Sep-08 17:51N 38°05' E 022°54'1 0.0
2017-Sep-07 19:02N 38°06' E 022°54'0 9.6
2017-Sep-07 19:00N 38°06' E 022°54'12 4.5
2017-Sep-07 16:25N 37°55' E 023°00'3 7.5
2017-Sep-07 16:00N 37°54' E 023°04'5 9.7
2017-Sep-07 15:30N 37°53' E 023°10'5 9.5
2017-Sep-07 15:00N 37°52' E 023°16'5 9.4
2017-Sep-07 14:30N 37°51' E 023°22'5 9.3
2017-Sep-07 14:00N 37°50' E 023°28'5 9.1
2017-Sep-07 13:31N 37°50' E 023°33'4 8.8
2017-Sep-07 13:00N 37°50' E 023°39'5 9.2
2017-Sep-07 12:30N 37°46' E 023°42'5 9.3
2017-Sep-07 12:00N 37°42' E 023°44'4 8.7
2017-Sep-07 11:30N 37°40' E 023°49'5 9.2
2017-Sep-07 11:00N 37°38' E 023°54'  
2017-Sep-03 03:26N 39°09' E 024°19'4 8.9
2017-Sep-03 03:00N 39°07' E 024°23'9 9.2
2017-Sep-03 02:00N 39°02' E 024°33'  
Track history (hours):
 
Tides and Currents Weather Stations Pressure Air Temp Water Temp Dewpoint Dewpoint Depression Visibility Wind Speed Wind Dir Waves Ship Positions

Syros Wind

Last reported at 2017-Sep-12 22:03 UTC. Time now 2017-Sep-21 05:28 UTC.
Position N 38°07' E 024°08'.
Warning: this ship's position is 8 days out of date.

Length 87 m; draft 4.8 m.

Type: Cargo ship. MMSI: 241475000.

Date/timePositionNaut miles runAvg speedWind from/ knotsBaromVisibWave heightAir tempDewpointWater temp
2017-Sep-12 22:03N 38°07' E 024°08'3 9.1
2017-Sep-12 21:45N 38°05' E 024°08'3 9.3
2017-Sep-12 21:24N 38°01' E 024°09'  
2017-Sep-10 03:26N 38°08' E 024°09'3 0.1
2017-Sep-09 05:01N 38°09' E 024°05'011.2
2017-Sep-09 05:00N 38°09' E 024°05'510.6
2017-Sep-09 04:30N 38°03' E 024°06'29 8.0
2017-Sep-09 00:55N 37°39' E 023°47'4 9.5
2017-Sep-09 00:30N 37°40' E 023°42'510.3
2017-Sep-09 00:01N 37°45' E 023°39'510.3
2017-Sep-08 23:30N 37°49' E 023°36'510.5
2017-Sep-08 23:00N 37°50' E 023°30'510.4
2017-Sep-08 22:31N 37°51' E 023°23'510.3
2017-Sep-08 22:00N 37°52' E 023°17'610.4
2017-Sep-08 21:25N 37°53' E 023°09'410.0
2017-Sep-08 21:00N 37°54' E 023°04'14 4.4
2017-Sep-08 17:51N 38°05' E 022°54'1 0.0
2017-Sep-07 19:02N 38°06' E 022°54'0 9.6
2017-Sep-07 19:00N 38°06' E 022°54'12 4.5
2017-Sep-07 16:25N 37°55' E 023°00'3 7.5
2017-Sep-07 16:00N 37°54' E 023°04'5 9.7
2017-Sep-07 15:30N 37°53' E 023°10'5 9.5
2017-Sep-07 15:00N 37°52' E 023°16'5 9.4
2017-Sep-07 14:30N 37°51' E 023°22'5 9.3
2017-Sep-07 14:00N 37°50' E 023°28'5 9.1
2017-Sep-07 13:31N 37°50' E 023°33'4 8.8
2017-Sep-07 13:00N 37°50' E 023°39'5 9.2
2017-Sep-07 12:30N 37°46' E 023°42'5 9.3
2017-Sep-07 12:00N 37°42' E 023°44'4 8.7
2017-Sep-07 11:30N 37°40' E 023°49'5 9.2
2017-Sep-07 11:00N 37°38' E 023°54'  
2017-Sep-03 03:26N 39°09' E 024°19'4 8.9
2017-Sep-03 03:00N 39°07' E 024°23'9 9.2
2017-Sep-03 02:00N 39°02' E 024°33'  

Dump ship's entire track history